Terminal Aerodrome Forecast
Issued by NWS

Home | Current Version | Previous Version | Text Only | Print | Product List | Glossary Off
Versions: 1 2 3 4 5 6 7 8 9 10 11 12 13 14 15 16

000
FTUS43 KBIS 050521
TAFDIK
TAF
KDIK 050521Z 0506/0606 15008KT P6SM SCT080
     FM051600 15020G29KT P6SM BKN080
     FM060100 13010KT P6SM BKN030=

USA.gov is the U.S. government's official web portal to all federal, state and local government web resources and services.